sensor_id;sensor_type;location;lat;lon;timestamp;P1;durP1;ratioP1;P2;durP2;ratioP2
11054;SDS011;5580;50.106;8.702;2023-11-22T00:00:49;6.60;;;4.10;;
11054;SDS011;5580;50.106;8.702;2023-11-22T00:03:15;7.10;;;4.50;;
11054;SDS011;5580;50.106;8.702;2023-11-22T00:05:40;6.97;;;4.70;;
11054;SDS011;5580;50.106;8.702;2023-11-22T00:08:06;6.53;;;4.60;;
11054;SDS011;5580;50.106;8.702;2023-11-22T00:10:31;6.83;;;4.60;;
11054;SDS011;5580;50.106;8.702;2023-11-22T00:12:57;7.13;;;4.93;;
11054;SDS011;5580;50.106;8.702;2023-11-22T00:15:23;8.77;;;5.70;;
11054;SDS011;5580;50.106;8.702;2023-11-22T00:17:49;8.03;;;5.07;;
11054;SDS011;5580;50.106;8.702;2023-11-22T00:20:14;8.57;;;5.20;;
11054;SDS011;5580;50.106;8.702;2023-11-22T00:22:42;7.97;;;5.13;;
11054;SDS011;5580;50.106;8.702;2023-11-22T00:25:10;9.37;;;5.47;;
11054;SDS011;5580;50.106;8.702;2023-11-22T00:27:38;9.33;;;5.67;;
11054;SDS011;5580;50.106;8.702;2023-11-22T00:30:04;8.13;;;5.20;;
11054;SDS011;5580;50.106;8.702;2023-11-22T00:32:30;9.63;;;5.37;;
11054;SDS011;5580;50.106;8.702;2023-11-22T00:34:55;7.57;;;5.17;;
11054;SDS011;5580;50.106;8.702;2023-11-22T00:37:21;7.90;;;5.33;;
11054;SDS011;5580;50.106;8.702;2023-11-22T00:39:46;10.13;;;5.80;;
11054;SDS011;5580;50.106;8.702;2023-11-22T00:42:12;7.87;;;5.13;;
11054;SDS011;5580;50.106;8.702;2023-11-22T00:44:37;9.37;;;5.50;;
11054;SDS011;5580;50.106;8.702;2023-11-22T00:47:03;9.00;;;5.50;;
11054;SDS011;5580;50.106;8.702;2023-11-22T00:49:29;8.30;;;5.17;;
11054;SDS011;5580;50.106;8.702;2023-11-22T00:51:54;10.13;;;5.83;;
11054;SDS011;5580;50.106;8.702;2023-11-22T00:54:20;10.33;;;5.77;;
11054;SDS011;5580;50.106;8.702;2023-11-22T00:56:46;10.23;;;5.80;;
11054;SDS011;5580;50.106;8.702;2023-11-22T00:59:12;9.30;;;5.87;;
11054;SDS011;5580;50.106;8.702;2023-11-22T01:01:38;10.90;;;6.47;;
11054;SDS011;5580;50.106;8.702;2023-11-22T01:04:04;9.97;;;6.60;;
11054;SDS011;5580;50.106;8.702;2023-11-22T01:06:32;12.13;;;6.33;;
11054;SDS011;5580;50.106;8.702;2023-11-22T01:08:58;9.30;;;5.97;;
11054;SDS011;5580;50.106;8.702;2023-11-22T01:11:24;12.57;;;6.63;;
11054;SDS011;5580;50.106;8.702;2023-11-22T01:13:49;11.60;;;6.60;;
11054;SDS011;5580;50.106;8.702;2023-11-22T01:16:15;12.43;;;6.20;;
11054;SDS011;5580;50.106;8.702;2023-11-22T01:18:40;11.20;;;6.37;;
11054;SDS011;5580;50.106;8.702;2023-11-22T01:21:06;11.63;;;6.77;;
11054;SDS011;5580;50.106;8.702;2023-11-22T01:23:33;11.37;;;6.73;;
11054;SDS011;5580;50.106;8.702;2023-11-22T01:25:58;11.70;;;6.37;;
11054;SDS011;5580;50.106;8.702;2023-11-22T01:28:24;10.33;;;6.60;;
11054;SDS011;5580;50.106;8.702;2023-11-22T01:30:53;12.00;;;6.90;;
11054;SDS011;5580;50.106;8.702;2023-11-22T01:33:19;12.80;;;6.70;;
11054;SDS011;5580;50.106;8.702;2023-11-22T01:35:48;9.80;;;6.17;;
11054;SDS011;5580;50.106;8.702;2023-11-22T01:38:15;11.60;;;6.70;;
11054;SDS011;5580;50.106;8.702;2023-11-22T01:40:47;11.43;;;6.70;;
11054;SDS011;5580;50.106;8.702;2023-11-22T01:43:22;10.70;;;6.10;;
11054;SDS011;5580;50.106;8.702;2023-11-22T01:45:51;12.30;;;6.90;;
11054;SDS011;5580;50.106;8.702;2023-11-22T01:48:19;11.07;;;6.40;;
11054;SDS011;5580;50.106;8.702;2023-11-22T01:50:46;10.33;;;6.43;;
11054;SDS011;5580;50.106;8.702;2023-11-22T01:53:12;10.80;;;6.60;;
11054;SDS011;5580;50.106;8.702;2023-11-22T01:55:38;11.17;;;6.63;;
11054;SDS011;5580;50.106;8.702;2023-11-22T01:58:06;11.90;;;7.10;;
11054;SDS011;5580;50.106;8.702;2023-11-22T02:00:32;11.13;;;6.67;;
11054;SDS011;5580;50.106;8.702;2023-11-22T02:03:06;11.73;;;6.70;;
11054;SDS011;5580;50.106;8.702;2023-11-22T02:05:32;10.87;;;6.43;;
11054;SDS011;5580;50.106;8.702;2023-11-22T02:07:58;11.23;;;6.60;;
11054;SDS011;5580;50.106;8.702;2023-11-22T02:10:24;11.63;;;6.43;;
11054;SDS011;5580;50.106;8.702;2023-11-22T02:12:49;10.90;;;6.57;;
11054;SDS011;5580;50.106;8.702;2023-11-22T02:15:15;11.17;;;6.20;;
11054;SDS011;5580;50.106;8.702;2023-11-22T02:17:41;11.20;;;6.63;;
11054;SDS011;5580;50.106;8.702;2023-11-22T02:20:07;11.60;;;6.43;;
11054;SDS011;5580;50.106;8.702;2023-11-22T02:22:45;11.67;;;6.90;;
11054;SDS011;5580;50.106;8.702;2023-11-22T02:25:12;10.53;;;6.23;;
11054;SDS011;5580;50.106;8.702;2023-11-22T02:27:38;11.00;;;6.30;;
11054;SDS011;5580;50.106;8.702;2023-11-22T02:30:05;13.23;;;6.37;;
11054;SDS011;5580;50.106;8.702;2023-11-22T02:32:31;11.33;;;6.57;;
11054;SDS011;5580;50.106;8.702;2023-11-22T02:34:58;11.37;;;6.30;;
11054;SDS011;5580;50.106;8.702;2023-11-22T02:37:24;10.97;;;6.47;;
11054;SDS011;5580;50.106;8.702;2023-11-22T02:39:54;11.03;;;6.40;;
11054;SDS011;5580;50.106;8.702;2023-11-22T02:42:37;9.03;;;6.00;;
11054;SDS011;5580;50.106;8.702;2023-11-22T02:45:03;11.57;;;6.40;;
11054;SDS011;5580;50.106;8.702;2023-11-22T02:47:30;10.50;;;6.30;;
11054;SDS011;5580;50.106;8.702;2023-11-22T02:49:56;10.27;;;6.30;;
11054;SDS011;5580;50.106;8.702;2023-11-22T02:52:22;11.80;;;6.33;;
11054;SDS011;5580;50.106;8.702;2023-11-22T02:54:49;11.03;;;6.37;;
11054;SDS011;5580;50.106;8.702;2023-11-22T02:57:14;9.77;;;6.10;;
11054;SDS011;5580;50.106;8.702;2023-11-22T02:59:43;9.83;;;6.20;;
11054;SDS011;5580;50.106;8.702;2023-11-22T03:02:09;11.93;;;6.20;;
11054;SDS011;5580;50.106;8.702;2023-11-22T03:04:35;10.93;;;6.40;;
11054;SDS011;5580;50.106;8.702;2023-11-22T03:07:01;10.23;;;6.27;;
11054;SDS011;5580;50.106;8.702;2023-11-22T03:09:26;9.27;;;5.93;;
11054;SDS011;5580;50.106;8.702;2023-11-22T03:11:52;10.37;;;6.37;;
11054;SDS011;5580;50.106;8.702;2023-11-22T03:14:18;9.97;;;6.00;;
11054;SDS011;5580;50.106;8.702;2023-11-22T03:16:44;12.07;;;6.60;;
11054;SDS011;5580;50.106;8.702;2023-11-22T03:19:10;10.87;;;6.40;;
11054;SDS011;5580;50.106;8.702;2023-11-22T03:21:38;11.23;;;6.60;;
11054;SDS011;5580;50.106;8.702;2023-11-22T03:24:04;11.80;;;6.53;;
11054;SDS011;5580;50.106;8.702;2023-11-22T03:26:30;10.87;;;6.50;;
11054;SDS011;5580;50.106;8.702;2023-11-22T03:28:55;17.27;;;6.73;;
11054;SDS011;5580;50.106;8.702;2023-11-22T03:31:21;10.53;;;6.23;;
11054;SDS011;5580;50.106;8.702;2023-11-22T03:33:46;10.50;;;6.00;;
11054;SDS011;5580;50.106;8.702;2023-11-22T03:36:12;11.23;;;6.43;;
11054;SDS011;5580;50.106;8.702;2023-11-22T03:38:38;12.07;;;6.57;;
11054;SDS011;5580;50.106;8.702;2023-11-22T03:41:04;11.90;;;6.37;;
11054;SDS011;5580;50.106;8.702;2023-11-22T03:43:30;9.80;;;6.03;;
11054;SDS011;5580;50.106;8.702;2023-11-22T03:45:56;12.83;;;6.43;;
11054;SDS011;5580;50.106;8.702;2023-11-22T03:48:21;10.43;;;6.23;;
11054;SDS011;5580;50.106;8.702;2023-11-22T03:50:48;12.23;;;6.00;;
11054;SDS011;5580;50.106;8.702;2023-11-22T03:53:14;10.50;;;5.93;;
11054;SDS011;5580;50.106;8.702;2023-11-22T03:55:40;12.43;;;6.17;;
11054;SDS011;5580;50.106;8.702;2023-11-22T03:58:05;12.77;;;6.40;;
11054;SDS011;5580;50.106;8.702;2023-11-22T04:00:32;10.17;;;6.37;;
11054;SDS011;5580;50.106;8.702;2023-11-22T04:02:58;11.67;;;6.37;;
11054;SDS011;5580;50.106;8.702;2023-11-22T04:05:26;12.13;;;6.10;;
11054;SDS011;5580;50.106;8.702;2023-11-22T04:07:52;11.50;;;6.50;;
11054;SDS011;5580;50.106;8.702;2023-11-22T04:10:18;9.43;;;5.80;;
11054;SDS011;5580;50.106;8.702;2023-11-22T04:12:44;9.73;;;6.00;;
11054;SDS011;5580;50.106;8.702;2023-11-22T04:15:11;11.03;;;6.10;;
11054;SDS011;5580;50.106;8.702;2023-11-22T04:17:36;10.40;;;6.00;;
11054;SDS011;5580;50.106;8.702;2023-11-22T04:20:03;9.97;;;6.17;;
11054;SDS011;5580;50.106;8.702;2023-11-22T04:22:34;10.30;;;5.70;;
11054;SDS011;5580;50.106;8.702;2023-11-22T04:24:59;10.40;;;6.03;;
11054;SDS011;5580;50.106;8.702;2023-11-22T04:27:26;10.53;;;5.83;;
11054;SDS011;5580;50.106;8.702;2023-11-22T04:29:52;11.87;;;6.10;;
11054;SDS011;5580;50.106;8.702;2023-11-22T04:32:18;11.67;;;6.00;;
11054;SDS011;5580;50.106;8.702;2023-11-22T04:34:44;10.80;;;6.50;;
11054;SDS011;5580;50.106;8.702;2023-11-22T04:37:09;10.00;;;5.90;;
11054;SDS011;5580;50.106;8.702;2023-11-22T04:39:35;10.47;;;6.23;;
11054;SDS011;5580;50.106;8.702;2023-11-22T04:42:00;9.57;;;5.60;;
11054;SDS011;5580;50.106;8.702;2023-11-22T04:44:26;10.87;;;5.90;;
11054;SDS011;5580;50.106;8.702;2023-11-22T04:46:51;12.13;;;6.07;;
11054;SDS011;5580;50.106;8.702;2023-11-22T04:49:17;11.47;;;6.00;;
11054;SDS011;5580;50.106;8.702;2023-11-22T04:51:44;9.97;;;6.03;;
11054;SDS011;5580;50.106;8.702;2023-11-22T04:54:10;11.80;;;5.70;;
11054;SDS011;5580;50.106;8.702;2023-11-22T04:56:36;10.07;;;5.60;;
11054;SDS011;5580;50.106;8.702;2023-11-22T04:59:02;10.33;;;6.10;;
11054;SDS011;5580;50.106;8.702;2023-11-22T05:01:32;12.33;;;5.63;;
11054;SDS011;5580;50.106;8.702;2023-11-22T05:03:58;10.73;;;6.20;;
11054;SDS011;5580;50.106;8.702;2023-11-22T05:06:24;12.63;;;6.10;;
11054;SDS011;5580;50.106;8.702;2023-11-22T05:08:51;10.50;;;5.90;;
11054;SDS011;5580;50.106;8.702;2023-11-22T05:11:17;11.80;;;6.20;;
11054;SDS011;5580;50.106;8.702;2023-11-22T05:13:42;10.70;;;5.80;;
11054;SDS011;5580;50.106;8.702;2023-11-22T05:16:08;9.80;;;5.67;;
11054;SDS011;5580;50.106;8.702;2023-11-22T05:18:34;9.07;;;5.77;;
11054;SDS011;5580;50.106;8.702;2023-11-22T05:21:01;10.53;;;5.80;;
11054;SDS011;5580;50.106;8.702;2023-11-22T05:23:29;10.53;;;5.47;;
11054;SDS011;5580;50.106;8.702;2023-11-22T05:25:56;9.67;;;5.80;;
11054;SDS011;5580;50.106;8.702;2023-11-22T05:28:22;11.07;;;5.70;;
11054;SDS011;5580;50.106;8.702;2023-11-22T05:30:47;10.60;;;5.57;;
11054;SDS011;5580;50.106;8.702;2023-11-22T05:33:13;10.13;;;5.90;;
11054;SDS011;5580;50.106;8.702;2023-11-22T05:35:38;10.37;;;5.83;;
11054;SDS011;5580;50.106;8.702;2023-11-22T05:38:06;10.87;;;6.10;;
11054;SDS011;5580;50.106;8.702;2023-11-22T05:40:32;13.23;;;6.10;;
11054;SDS011;5580;50.106;8.702;2023-11-22T05:42:58;8.77;;;5.43;;
11054;SDS011;5580;50.106;8.702;2023-11-22T05:45:23;9.80;;;5.97;;
11054;SDS011;5580;50.106;8.702;2023-11-22T05:47:50;11.10;;;5.80;;
11054;SDS011;5580;50.106;8.702;2023-11-22T05:50:16;13.73;;;6.10;;
11054;SDS011;5580;50.106;8.702;2023-11-22T05:52:41;10.97;;;5.97;;
11054;SDS011;5580;50.106;8.702;2023-11-22T05:55:09;11.37;;;5.93;;
11054;SDS011;5580;50.106;8.702;2023-11-22T05:57:35;11.87;;;6.10;;
11054;SDS011;5580;50.106;8.702;2023-11-22T06:00:00;11.10;;;6.23;;
11054;SDS011;5580;50.106;8.702;2023-11-22T06:02:26;9.50;;;5.70;;
11054;SDS011;5580;50.106;8.702;2023-11-22T06:04:52;11.73;;;5.90;;
11054;SDS011;5580;50.106;8.702;2023-11-22T06:07:18;12.13;;;6.10;;
11054;SDS011;5580;50.106;8.702;2023-11-22T06:09:43;11.63;;;6.03;;
11054;SDS011;5580;50.106;8.702;2023-11-22T06:12:09;12.13;;;6.27;;
11054;SDS011;5580;50.106;8.702;2023-11-22T06:14:35;11.33;;;6.37;;
11054;SDS011;5580;50.106;8.702;2023-11-22T06:17:00;11.10;;;5.90;;
11054;SDS011;5580;50.106;8.702;2023-11-22T06:19:26;10.27;;;5.63;;
11054;SDS011;5580;50.106;8.702;2023-11-22T06:21:52;11.10;;;5.70;;
11054;SDS011;5580;50.106;8.702;2023-11-22T06:24:17;12.97;;;6.00;;
11054;SDS011;5580;50.106;8.702;2023-11-22T06:26:43;9.20;;;5.50;;
11054;SDS011;5580;50.106;8.702;2023-11-22T06:29:11;12.87;;;5.67;;
11054;SDS011;5580;50.106;8.702;2023-11-22T06:31:36;12.50;;;6.17;;
11054;SDS011;5580;50.106;8.702;2023-11-22T06:34:02;10.50;;;5.80;;
11054;SDS011;5580;50.106;8.702;2023-11-22T06:36:28;11.97;;;6.10;;
11054;SDS011;5580;50.106;8.702;2023-11-22T06:38:54;9.87;;;5.83;;
11054;SDS011;5580;50.106;8.702;2023-11-22T06:41:20;10.00;;;5.67;;
11054;SDS011;5580;50.106;8.702;2023-11-22T06:43:46;10.80;;;6.07;;
11054;SDS011;5580;50.106;8.702;2023-11-22T06:46:12;11.30;;;5.80;;
11054;SDS011;5580;50.106;8.702;2023-11-22T06:48:41;10.43;;;5.53;;
11054;SDS011;5580;50.106;8.702;2023-11-22T06:51:08;10.27;;;6.03;;
11054;SDS011;5580;50.106;8.702;2023-11-22T06:53:34;9.83;;;5.57;;
11054;SDS011;5580;50.106;8.702;2023-11-22T06:56:00;10.60;;;5.97;;
11054;SDS011;5580;50.106;8.702;2023-11-22T06:58:26;10.23;;;5.70;;
11054;SDS011;5580;50.106;8.702;2023-11-22T07:00:52;9.80;;;5.57;;
11054;SDS011;5580;50.106;8.702;2023-11-22T07:03:17;10.63;;;5.83;;
11054;SDS011;5580;50.106;8.702;2023-11-22T07:05:43;10.97;;;5.80;;
11054;SDS011;5580;50.106;8.702;2023-11-22T07:08:09;10.97;;;5.57;;
11054;SDS011;5580;50.106;8.702;2023-11-22T07:10:36;8.70;;;5.70;;
11054;SDS011;5580;50.106;8.702;2023-11-22T07:13:02;10.47;;;6.30;;
11054;SDS011;5580;50.106;8.702;2023-11-22T07:15:28;10.10;;;5.50;;
11054;SDS011;5580;50.106;8.702;2023-11-22T07:17:54;8.33;;;5.27;;
11054;SDS011;5580;50.106;8.702;2023-11-22T07:20:19;11.50;;;5.93;;
11054;SDS011;5580;50.106;8.702;2023-11-22T07:22:45;11.17;;;5.87;;
11054;SDS011;5580;50.106;8.702;2023-11-22T07:25:11;11.43;;;6.40;;
11054;SDS011;5580;50.106;8.702;2023-11-22T07:27:49;10.97;;;5.83;;
11054;SDS011;5580;50.106;8.702;2023-11-22T07:30:16;10.97;;;5.73;;
11054;SDS011;5580;50.106;8.702;2023-11-22T07:32:47;12.37;;;5.77;;
11054;SDS011;5580;50.106;8.702;2023-11-22T07:35:19;11.73;;;5.87;;
11054;SDS011;5580;50.106;8.702;2023-11-22T07:37:45;9.80;;;5.50;;
11054;SDS011;5580;50.106;8.702;2023-11-22T07:40:12;9.00;;;5.40;;
11054;SDS011;5580;50.106;8.702;2023-11-22T07:42:39;12.53;;;5.90;;
11054;SDS011;5580;50.106;8.702;2023-11-22T07:45:05;10.37;;;5.67;;
11054;SDS011;5580;50.106;8.702;2023-11-22T07:47:31;10.63;;;6.20;;
11054;SDS011;5580;50.106;8.702;2023-11-22T07:49:57;10.73;;;5.70;;
11054;SDS011;5580;50.106;8.702;2023-11-22T07:52:23;10.80;;;5.70;;
11054;SDS011;5580;50.106;8.702;2023-11-22T07:54:55;11.30;;;6.17;;
11054;SDS011;5580;50.106;8.702;2023-11-22T07:57:21;12.53;;;5.83;;
11054;SDS011;5580;50.106;8.702;2023-11-22T07:59:48;10.43;;;6.13;;
11054;SDS011;5580;50.106;8.702;2023-11-22T08:02:14;9.67;;;5.60;;
11054;SDS011;5580;50.106;8.702;2023-11-22T08:04:42;10.07;;;5.93;;
11054;SDS011;5580;50.106;8.702;2023-11-22T08:07:09;10.07;;;5.50;;
11054;SDS011;5580;50.106;8.702;2023-11-22T08:09:36;10.57;;;5.90;;
11054;SDS011;5580;50.106;8.702;2023-11-22T08:12:02;10.93;;;6.00;;
11054;SDS011;5580;50.106;8.702;2023-11-22T08:14:28;11.30;;;5.87;;
11054;SDS011;5580;50.106;8.702;2023-11-22T08:16:54;11.03;;;5.63;;
11054;SDS011;5580;50.106;8.702;2023-11-22T08:19:19;10.90;;;6.03;;
11054;SDS011;5580;50.106;8.702;2023-11-22T08:21:46;10.50;;;6.27;;
11054;SDS011;5580;50.106;8.702;2023-11-22T08:24:13;11.47;;;5.90;;
11054;SDS011;5580;50.106;8.702;2023-11-22T08:26:38;10.73;;;6.07;;
11054;SDS011;5580;50.106;8.702;2023-11-22T08:29:04;13.17;;;6.23;;
11054;SDS011;5580;50.106;8.702;2023-11-22T08:31:30;10.90;;;5.50;;
11054;SDS011;5580;50.106;8.702;2023-11-22T08:33:56;12.93;;;6.03;;
11054;SDS011;5580;50.106;8.702;2023-11-22T08:36:21;11.83;;;5.70;;
11054;SDS011;5580;50.106;8.702;2023-11-22T08:38:48;9.97;;;5.80;;
11054;SDS011;5580;50.106;8.702;2023-11-22T08:41:14;11.37;;;5.50;;
11054;SDS011;5580;50.106;8.702;2023-11-22T08:43:40;11.87;;;6.10;;
11054;SDS011;5580;50.106;8.702;2023-11-22T08:46:06;11.33;;;6.40;;
11054;SDS011;5580;50.106;8.702;2023-11-22T08:48:33;13.50;;;5.73;;
11054;SDS011;5580;50.106;8.702;2023-11-22T08:50:59;10.30;;;5.93;;
11054;SDS011;5580;50.106;8.702;2023-11-22T08:53:26;9.33;;;5.67;;
11054;SDS011;5580;50.106;8.702;2023-11-22T08:55:52;11.83;;;5.70;;
11054;SDS011;5580;50.106;8.702;2023-11-22T08:58:19;10.87;;;6.33;;
11054;SDS011;5580;50.106;8.702;2023-11-22T09:00:46;8.77;;;5.67;;
11054;SDS011;5580;50.106;8.702;2023-11-22T09:03:12;9.87;;;5.90;;
11054;SDS011;5580;50.106;8.702;2023-11-22T09:05:40;10.50;;;5.57;;
11054;SDS011;5580;50.106;8.702;2023-11-22T09:08:07;10.57;;;5.67;;
11054;SDS011;5580;50.106;8.702;2023-11-22T09:10:38;11.77;;;5.73;;
11054;SDS011;5580;50.106;8.702;2023-11-22T09:13:04;12.83;;;6.07;;
11054;SDS011;5580;50.106;8.702;2023-11-22T09:15:30;10.30;;;5.83;;
11054;SDS011;5580;50.106;8.702;2023-11-22T09:17:58;11.53;;;5.70;;
11054;SDS011;5580;50.106;8.702;2023-11-22T09:20:24;10.87;;;6.03;;
11054;SDS011;5580;50.106;8.702;2023-11-22T09:22:51;10.87;;;5.60;;
11054;SDS011;5580;50.106;8.702;2023-11-22T09:25:21;11.50;;;5.93;;
11054;SDS011;5580;50.106;8.702;2023-11-22T09:27:53;10.23;;;5.60;;
11054;SDS011;5580;50.106;8.702;2023-11-22T09:30:28;10.17;;;5.57;;
11054;SDS011;5580;50.106;8.702;2023-11-22T09:33:07;10.43;;;5.60;;
11054;SDS011;5580;50.106;8.702;2023-11-22T09:35:36;9.03;;;5.50;;
11054;SDS011;5580;50.106;8.702;2023-11-22T09:38:03;9.90;;;5.30;;
11054;SDS011;5580;50.106;8.702;2023-11-22T09:40:31;10.10;;;5.47;;
11054;SDS011;5580;50.106;8.702;2023-11-22T09:42:57;11.83;;;5.83;;
11054;SDS011;5580;50.106;8.702;2023-11-22T09:45:24;10.13;;;5.33;;
11054;SDS011;5580;50.106;8.702;2023-11-22T09:47:54;10.57;;;5.80;;
11054;SDS011;5580;50.106;8.702;2023-11-22T09:50:22;8.60;;;5.27;;
11054;SDS011;5580;50.106;8.702;2023-11-22T09:52:55;10.30;;;5.77;;
11054;SDS011;5580;50.106;8.702;2023-11-22T09:55:24;9.07;;;5.40;;
11054;SDS011;5580;50.106;8.702;2023-11-22T09:57:53;9.23;;;5.50;;
11054;SDS011;5580;50.106;8.702;2023-11-22T10:00:20;8.90;;;5.13;;
11054;SDS011;5580;50.106;8.702;2023-11-22T10:02:46;11.17;;;5.60;;
11054;SDS011;5580;50.106;8.702;2023-11-22T10:05:12;8.73;;;5.27;;
11054;SDS011;5580;50.106;8.702;2023-11-22T10:07:39;11.90;;;5.57;;
11054;SDS011;5580;50.106;8.702;2023-11-22T10:10:04;9.53;;;5.47;;
11054;SDS011;5580;50.106;8.702;2023-11-22T10:12:31;11.07;;;5.90;;
11054;SDS011;5580;50.106;8.702;2023-11-22T10:15:11;10.03;;;5.30;;
11054;SDS011;5580;50.106;8.702;2023-11-22T10:17:37;10.20;;;5.60;;
11054;SDS011;5580;50.106;8.702;2023-11-22T10:20:03;8.23;;;5.03;;
11054;SDS011;5580;50.106;8.702;2023-11-22T10:22:29;9.63;;;5.47;;
11054;SDS011;5580;50.106;8.702;2023-11-22T10:24:58;8.80;;;5.40;;
11054;SDS011;5580;50.106;8.702;2023-11-22T10:27:25;9.27;;;5.10;;
11054;SDS011;5580;50.106;8.702;2023-11-22T10:29:51;10.23;;;5.13;;
11054;SDS011;5580;50.106;8.702;2023-11-22T10:32:17;10.67;;;5.87;;
11054;SDS011;5580;50.106;8.702;2023-11-22T10:34:42;9.13;;;5.30;;
11054;SDS011;5580;50.106;8.702;2023-11-22T10:37:10;9.60;;;5.60;;
11054;SDS011;5580;50.106;8.702;2023-11-22T10:39:36;10.67;;;5.37;;
11054;SDS011;5580;50.106;8.702;2023-11-22T10:42:02;9.97;;;5.70;;
11054;SDS011;5580;50.106;8.702;2023-11-22T10:44:33;12.83;;;5.77;;
11054;SDS011;5580;50.106;8.702;2023-11-22T10:46:59;10.57;;;5.50;;
11054;SDS011;5580;50.106;8.702;2023-11-22T10:49:25;9.63;;;5.50;;
11054;SDS011;5580;50.106;8.702;2023-11-22T10:51:52;9.57;;;5.87;;
11054;SDS011;5580;50.106;8.702;2023-11-22T10:54:19;9.70;;;5.17;;
11054;SDS011;5580;50.106;8.702;2023-11-22T10:56:48;9.87;;;5.57;;
11054;SDS011;5580;50.106;8.702;2023-11-22T10:59:19;8.97;;;5.30;;
11054;SDS011;5580;50.106;8.702;2023-11-22T11:01:48;8.83;;;5.20;;
11054;SDS011;5580;50.106;8.702;2023-11-22T11:04:51;10.33;;;5.73;;
11054;SDS011;5580;50.106;8.702;2023-11-22T11:07:14;7.83;;;5.03;;
11054;SDS011;5580;50.106;8.702;2023-11-22T11:09:47;10.07;;;5.67;;
11054;SDS011;5580;50.106;8.702;2023-11-22T11:12:16;8.50;;;5.37;;
11054;SDS011;5580;50.106;8.702;2023-11-22T11:14:42;10.27;;;5.70;;
11054;SDS011;5580;50.106;8.702;2023-11-22T11:17:11;9.57;;;5.43;;
11054;SDS011;5580;50.106;8.702;2023-11-22T11:19:38;9.40;;;5.20;;
11054;SDS011;5580;50.106;8.702;2023-11-22T11:22:03;9.80;;;5.13;;
11054;SDS011;5580;50.106;8.702;2023-11-22T11:24:40;9.73;;;5.80;;
11054;SDS011;5580;50.106;8.702;2023-11-22T11:27:09;10.13;;;5.67;;
11054;SDS011;5580;50.106;8.702;2023-11-22T11:29:36;10.53;;;5.60;;
11054;SDS011;5580;50.106;8.702;2023-11-22T11:32:09;9.10;;;5.43;;
11054;SDS011;5580;50.106;8.702;2023-11-22T11:34:56;8.30;;;5.37;;
11054;SDS011;5580;50.106;8.702;2023-11-22T11:37:23;10.47;;;5.33;;
11054;SDS011;5580;50.106;8.702;2023-11-22T11:39:49;9.07;;;5.20;;
11054;SDS011;5580;50.106;8.702;2023-11-22T11:42:14;10.47;;;5.57;;
11054;SDS011;5580;50.106;8.702;2023-11-22T11:47:24;8.23;;;5.23;;
11054;SDS011;5580;50.106;8.702;2023-11-22T11:49:55;9.80;;;5.30;;
11054;SDS011;5580;50.106;8.702;2023-11-22T11:52:58;9.17;;;5.50;;
11054;SDS011;5580;50.106;8.702;2023-11-22T11:55:25;10.23;;;5.77;;
11054;SDS011;5580;50.106;8.702;2023-11-22T11:57:55;11.77;;;5.10;;
11054;SDS011;5580;50.106;8.702;2023-11-22T12:00:21;9.23;;;5.20;;
11054;SDS011;5580;50.106;8.702;2023-11-22T12:02:49;10.87;;;5.57;;
11054;SDS011;5580;50.106;8.702;2023-11-22T12:05:17;7.97;;;4.93;;
11054;SDS011;5580;50.106;8.702;2023-11-22T12:07:45;9.27;;;5.50;;
11054;SDS011;5580;50.106;8.702;2023-11-22T12:10:10;9.20;;;5.30;;
11054;SDS011;5580;50.106;8.702;2023-11-22T12:12:36;10.93;;;5.40;;
11054;SDS011;5580;50.106;8.702;2023-11-22T12:15:02;10.67;;;5.30;;
11054;SDS011;5580;50.106;8.702;2023-11-22T12:17:28;8.83;;;5.60;;
11054;SDS011;5580;50.106;8.702;2023-11-22T12:20:08;8.43;;;5.20;;
11054;SDS011;5580;50.106;8.702;2023-11-22T12:22:36;9.07;;;5.43;;
11054;SDS011;5580;50.106;8.702;2023-11-22T12:25:03;8.67;;;5.17;;
11054;SDS011;5580;50.106;8.702;2023-11-22T12:27:29;10.73;;;5.50;;
11054;SDS011;5580;50.106;8.702;2023-11-22T12:29:56;8.83;;;5.60;;
11054;SDS011;5580;50.106;8.702;2023-11-22T12:32:23;9.30;;;5.57;;
11054;SDS011;5580;50.106;8.702;2023-11-22T12:34:49;9.77;;;5.80;;
11054;SDS011;5580;50.106;8.702;2023-11-22T12:37:19;10.33;;;5.50;;
11054;SDS011;5580;50.106;8.702;2023-11-22T12:39:46;8.30;;;5.33;;
11054;SDS011;5580;50.106;8.702;2023-11-22T12:42:13;11.03;;;5.90;;
11054;SDS011;5580;50.106;8.702;2023-11-22T12:44:48;13.33;;;5.73;;
11054;SDS011;5580;50.106;8.702;2023-11-22T12:47:14;10.70;;;5.80;;
11054;SDS011;5580;50.106;8.702;2023-11-22T12:49:44;8.97;;;5.60;;
11054;SDS011;5580;50.106;8.702;2023-11-22T12:52:10;10.07;;;5.80;;
11054;SDS011;5580;50.106;8.702;2023-11-22T12:54:37;9.50;;;5.73;;
11054;SDS011;5580;50.106;8.702;2023-11-22T12:57:03;9.60;;;5.70;;
11054;SDS011;5580;50.106;8.702;2023-11-22T12:59:35;8.90;;;5.47;;
11054;SDS011;5580;50.106;8.702;2023-11-22T13:02:00;10.83;;;5.50;;
11054;SDS011;5580;50.106;8.702;2023-11-22T13:04:27;8.70;;;5.60;;
11054;SDS011;5580;50.106;8.702;2023-11-22T13:06:54;7.33;;;5.07;;
11054;SDS011;5580;50.106;8.702;2023-11-22T13:09:20;8.17;;;5.60;;
11054;SDS011;5580;50.106;8.702;2023-11-22T13:11:45;8.67;;;5.40;;
11054;SDS011;5580;50.106;8.702;2023-11-22T13:14:14;8.37;;;5.50;;
11054;SDS011;5580;50.106;8.702;2023-11-22T13:17:14;8.50;;;5.67;;
11054;SDS011;5580;50.106;8.702;2023-11-22T13:19:39;9.87;;;5.43;;
11054;SDS011;5580;50.106;8.702;2023-11-22T13:22:06;9.40;;;5.40;;
11054;SDS011;5580;50.106;8.702;2023-11-22T13:24:33;9.90;;;5.33;;
11054;SDS011;5580;50.106;8.702;2023-11-22T13:26:58;10.83;;;5.90;;
11054;SDS011;5580;50.106;8.702;2023-11-22T13:29:24;10.10;;;5.67;;
11054;SDS011;5580;50.106;8.702;2023-11-22T13:31:51;8.93;;;5.57;;
11054;SDS011;5580;50.106;8.702;2023-11-22T13:34:16;9.20;;;5.40;;
11054;SDS011;5580;50.106;8.702;2023-11-22T13:36:42;10.97;;;5.43;;
11054;SDS011;5580;50.106;8.702;2023-11-22T13:39:08;8.90;;;5.47;;
11054;SDS011;5580;50.106;8.702;2023-11-22T13:41:34;9.30;;;5.63;;
11054;SDS011;5580;50.106;8.702;2023-11-22T13:44:00;10.20;;;6.27;;
11054;SDS011;5580;50.106;8.702;2023-11-22T13:46:26;9.47;;;5.77;;
11054;SDS011;5580;50.106;8.702;2023-11-22T13:48:52;9.97;;;5.73;;
11054;SDS011;5580;50.106;8.702;2023-11-22T13:51:17;9.13;;;5.57;;
11054;SDS011;5580;50.106;8.702;2023-11-22T13:53:46;9.47;;;5.60;;
11054;SDS011;5580;50.106;8.702;2023-11-22T13:56:17;8.77;;;5.30;;
11054;SDS011;5580;50.106;8.702;2023-11-22T13:58:43;9.43;;;5.40;;
11054;SDS011;5580;50.106;8.702;2023-11-22T14:01:09;14.57;;;5.93;;
11054;SDS011;5580;50.106;8.702;2023-11-22T14:03:41;11.27;;;5.77;;
11054;SDS011;5580;50.106;8.702;2023-11-22T14:06:07;10.00;;;5.50;;
11054;SDS011;5580;50.106;8.702;2023-11-22T14:08:34;8.50;;;5.37;;
11054;SDS011;5580;50.106;8.702;2023-11-22T14:11:03;10.43;;;6.17;;
11054;SDS011;5580;50.106;8.702;2023-11-22T14:13:28;11.57;;;5.97;;
11054;SDS011;5580;50.106;8.702;2023-11-22T14:15:54;11.33;;;6.00;;
11054;SDS011;5580;50.106;8.702;2023-11-22T14:18:20;11.07;;;6.03;;
11054;SDS011;5580;50.106;8.702;2023-11-22T14:20:45;9.47;;;5.73;;
11054;SDS011;5580;50.106;8.702;2023-11-22T14:23:11;9.80;;;5.70;;
11054;SDS011;5580;50.106;8.702;2023-11-22T14:25:37;11.00;;;5.83;;
11054;SDS011;5580;50.106;8.702;2023-11-22T14:28:02;9.30;;;5.80;;
11054;SDS011;5580;50.106;8.702;2023-11-22T14:30:29;9.83;;;5.70;;
11054;SDS011;5580;50.106;8.702;2023-11-22T14:33:00;10.73;;;5.47;;
11054;SDS011;5580;50.106;8.702;2023-11-22T14:35:31;9.90;;;5.77;;
11054;SDS011;5580;50.106;8.702;2023-11-22T14:37:57;10.63;;;5.70;;
11054;SDS011;5580;50.106;8.702;2023-11-22T14:40:24;10.23;;;5.90;;
11054;SDS011;5580;50.106;8.702;2023-11-22T14:42:50;11.87;;;5.87;;
11054;SDS011;5580;50.106;8.702;2023-11-22T14:45:17;14.47;;;6.40;;
11054;SDS011;5580;50.106;8.702;2023-11-22T14:47:45;8.93;;;5.83;;
11054;SDS011;5580;50.106;8.702;2023-11-22T14:50:11;9.87;;;5.67;;
11054;SDS011;5580;50.106;8.702;2023-11-22T14:52:37;11.27;;;5.93;;
11054;SDS011;5580;50.106;8.702;2023-11-22T14:55:03;13.37;;;7.30;;